createdAt,value
2018-09-25T00:02:01.936Z,0.60
2018-09-25T00:04:34.865Z,0.77
2018-09-25T00:07:07.675Z,0.60
2018-09-25T00:09:40.529Z,0.80
2018-09-25T00:12:13.212Z,0.80
2018-09-25T00:14:46.074Z,0.60
2018-09-25T00:17:18.826Z,0.70
2018-09-25T00:19:51.533Z,0.70
2018-09-25T00:22:24.293Z,0.87
2018-09-25T00:24:57.049Z,0.80
2018-09-25T00:27:29.685Z,0.90
2018-09-25T00:30:02.422Z,0.80
2018-09-25T00:32:35.115Z,0.80
2018-09-25T00:35:07.914Z,0.87
2018-09-25T00:37:40.598Z,0.70
2018-09-25T00:40:13.352Z,0.80
2018-09-25T00:42:46.188Z,0.70
2018-09-25T00:45:19.054Z,1.00
2018-09-25T00:47:51.839Z,0.77
2018-09-25T00:50:24.532Z,0.90
2018-09-25T00:52:57.281Z,0.90
2018-09-25T00:55:30.094Z,0.80
2018-09-25T00:58:02.820Z,1.00
2018-09-25T01:00:35.734Z,0.90
2018-09-25T01:03:08.417Z,1.07
2018-09-25T01:05:41.161Z,1.00
2018-09-25T01:08:13.853Z,1.63
2018-09-25T01:10:46.667Z,1.00
2018-09-25T01:13:19.433Z,1.27
2018-09-25T01:15:52.247Z,1.13
2018-09-25T01:18:24.989Z,1.10
2018-09-25T01:20:57.798Z,0.87
2018-09-25T01:23:30.597Z,1.10
2018-09-25T01:26:03.350Z,1.23
2018-09-25T01:28:36.115Z,0.90
2018-09-25T01:31:08.848Z,1.23
2018-09-25T01:33:41.509Z,2.43
2018-09-25T01:36:14.484Z,1.10
2018-09-25T01:38:47.225Z,1.13
2018-09-25T01:41:19.889Z,1.53
2018-09-25T01:43:52.553Z,1.20
2018-09-25T01:46:25.236Z,1.03
2018-09-25T01:48:57.854Z,1.10
2018-09-25T01:51:30.628Z,1.20
2018-09-25T01:54:03.336Z,1.20
2018-09-25T01:56:35.980Z,1.13
2018-09-25T01:59:08.528Z,1.33
2018-09-25T02:01:41.261Z,0.80
2018-09-25T02:04:13.929Z,1.53
2018-09-25T02:06:46.487Z,1.10
2018-09-25T02:09:19.222Z,1.47
2018-09-25T02:11:51.905Z,1.00
2018-09-25T02:14:24.481Z,0.77
2018-09-25T02:16:57.172Z,1.23
2018-09-25T02:19:29.781Z,0.90
2018-09-25T02:22:02.506Z,1.10
2018-09-25T02:24:35.137Z,1.00
2018-09-25T02:27:07.924Z,1.10
2018-09-25T02:29:40.544Z,0.70
2018-09-25T02:32:13.259Z,0.93
2018-09-25T02:34:45.804Z,0.80
2018-09-25T02:37:18.423Z,1.17
2018-09-25T02:39:51.061Z,0.60
2018-09-25T02:42:23.763Z,0.73
2018-09-25T02:44:56.523Z,1.10
2018-09-25T02:47:29.116Z,1.00
2018-09-25T02:50:01.776Z,0.90
2018-09-25T02:52:34.604Z,1.13
2018-09-25T02:55:07.366Z,1.20
2018-09-25T02:57:40.000Z,1.00
2018-09-25T03:00:12.521Z,0.93
2018-09-25T03:02:45.201Z,1.47
2018-09-25T03:05:18.041Z,0.80
2018-09-25T03:07:50.773Z,0.97
2018-09-25T03:10:23.595Z,1.13
2018-09-25T03:12:56.433Z,1.53
2018-09-25T03:15:29.124Z,1.50
2018-09-25T03:18:01.837Z,1.07
2018-09-25T03:20:34.640Z,0.97
2018-09-25T03:23:07.325Z,1.30
2018-09-25T03:25:40.269Z,1.20
2018-09-25T03:28:13.111Z,1.30
2018-09-25T03:30:45.869Z,1.10
2018-09-25T03:33:18.637Z,1.27
2018-09-25T03:35:51.298Z,0.97
2018-09-25T03:38:24.132Z,1.00
2018-09-25T03:40:56.833Z,1.07
2018-09-25T03:43:29.504Z,1.10
2018-09-25T03:46:02.276Z,1.17
2018-09-25T03:48:35.038Z,1.03
2018-09-25T03:51:07.683Z,1.30
2018-09-25T03:53:40.584Z,1.07
2018-09-25T03:56:13.357Z,0.90
2018-09-25T03:58:46.062Z,1.20
2018-09-25T04:01:18.830Z,1.40
2018-09-25T04:03:51.709Z,1.10
2018-09-25T04:06:24.688Z,1.40
2018-09-25T04:08:57.494Z,1.07
2018-09-25T04:11:30.235Z,1.10
2018-09-25T04:14:02.935Z,1.03
2018-09-25T04:16:35.641Z,1.40
2018-09-25T04:19:08.419Z,1.40
2018-09-25T04:21:41.295Z,1.80
2018-09-25T04:24:14.106Z,1.10
2018-09-25T04:26:46.838Z,1.57
2018-09-25T04:29:19.827Z,1.27
2018-09-25T04:31:52.617Z,1.50
2018-09-25T04:34:25.331Z,1.07
2018-09-25T04:36:58.097Z,0.97
2018-09-25T04:39:30.779Z,1.20
2018-09-25T04:42:03.546Z,1.00
2018-09-25T04:44:36.331Z,1.60
2018-09-25T04:47:09.041Z,1.27
2018-09-25T04:49:41.813Z,1.47
2018-09-25T04:52:14.457Z,1.20
2018-09-25T04:54:47.294Z,1.60
2018-09-25T04:57:20.201Z,1.47
2018-09-25T04:59:53.047Z,1.67
2018-09-25T05:02:25.618Z,0.83
2018-09-25T05:04:58.385Z,1.50
2018-09-25T05:07:31.094Z,1.73
2018-09-25T05:10:03.953Z,1.30
2018-09-25T05:12:36.790Z,2.20
2018-09-25T05:15:09.882Z,1.17
2018-09-25T05:17:42.557Z,1.90
2018-09-25T05:20:15.389Z,2.00
2018-09-25T05:22:48.050Z,1.30
2018-09-25T05:25:20.943Z,2.00
2018-09-25T05:27:53.796Z,1.90
2018-09-25T05:30:26.621Z,2.20
2018-09-25T05:32:59.474Z,1.57
2018-09-25T05:35:32.381Z,1.90
2018-09-25T05:38:05.102Z,1.50
2018-09-25T05:40:37.845Z,2.60
2018-09-25T05:43:10.690Z,2.27
2018-09-25T05:45:43.477Z,1.97
2018-09-25T05:48:16.277Z,2.03
2018-09-25T05:50:56.037Z,1.90
2018-09-25T05:53:28.832Z,2.00
2018-09-25T05:56:02.127Z,1.67
2018-09-25T05:58:34.832Z,2.00
2018-09-25T06:01:07.638Z,1.83
2018-09-25T06:03:40.586Z,2.30
2018-09-25T06:06:13.301Z,2.20
2018-09-25T06:08:46.141Z,1.87
2018-09-25T06:11:18.917Z,1.47
2018-09-25T06:13:51.578Z,1.93
2018-09-25T06:16:24.316Z,2.13
2018-09-25T06:18:57.037Z,2.00
2018-09-25T06:21:29.810Z,2.03
2018-09-25T06:24:02.548Z,1.90
2018-09-25T06:26:35.271Z,1.63
2018-09-25T06:29:08.029Z,1.80
2018-09-25T06:31:40.750Z,2.60
2018-09-25T06:34:13.429Z,1.90
2018-09-25T06:36:46.358Z,2.07
2018-09-25T06:39:19.120Z,1.40
2018-09-25T06:41:51.845Z,1.83
2018-09-25T06:44:24.624Z,1.70
2018-09-25T06:46:57.845Z,2.30
2018-09-25T06:49:30.786Z,2.50
2018-09-25T06:52:03.458Z,2.47
2018-09-25T06:54:36.293Z,2.40
2018-09-25T06:57:09.136Z,2.57
2018-09-25T06:59:41.772Z,1.77
2018-09-25T07:02:14.524Z,2.30
2018-09-25T07:04:47.158Z,2.33
2018-09-25T07:07:19.754Z,2.17
2018-09-25T07:09:52.433Z,1.80
2018-09-25T07:12:25.034Z,2.00
2018-09-25T07:14:57.700Z,2.13
2018-09-25T07:17:30.519Z,2.93
2018-09-25T07:20:03.166Z,2.10
2018-09-25T07:22:36.093Z,2.17
2018-09-25T07:25:09.163Z,1.87
2018-09-25T07:27:41.905Z,2.43
2018-09-25T07:30:14.642Z,3.20
2018-09-25T07:32:47.371Z,2.13
2018-09-25T07:35:20.160Z,2.27
2018-09-25T07:37:53.236Z,2.60
2018-09-25T07:40:26.004Z,1.80
2018-09-25T07:42:58.755Z,2.60
2018-09-25T07:45:31.520Z,3.00
2018-09-25T07:48:04.371Z,2.37
2018-09-25T07:50:37.322Z,2.40
2018-09-25T07:53:10.181Z,2.10
2018-09-25T07:55:43.123Z,3.73
2018-09-25T07:58:16.973Z,3.10
2018-09-25T08:00:49.808Z,2.20
2018-09-25T08:03:22.886Z,2.60
2018-09-25T08:05:55.604Z,2.13
2018-09-25T08:08:28.517Z,2.70
2018-09-25T08:11:01.252Z,2.40
2018-09-25T08:13:33.946Z,2.27
2018-09-25T08:16:06.986Z,2.20
2018-09-25T08:18:39.853Z,1.73
2018-09-25T08:21:12.673Z,2.30
2018-09-25T08:23:45.441Z,2.50
2018-09-25T08:26:18.533Z,1.97
2018-09-25T08:28:51.429Z,1.67
2018-09-25T08:31:24.346Z,2.40
2018-09-25T08:33:57.033Z,2.40
2018-09-25T08:36:29.936Z,1.70
2018-09-25T08:39:03.024Z,1.53
2018-09-25T08:41:35.745Z,2.20
2018-09-25T08:44:08.629Z,2.13
2018-09-25T08:46:41.412Z,2.20
2018-09-25T08:49:14.254Z,2.30
2018-09-25T08:51:47.271Z,2.20
2018-09-25T08:54:20.268Z,1.80
2018-09-25T08:56:52.961Z,1.90
2018-09-25T08:59:25.860Z,2.67
2018-09-25T09:01:58.621Z,2.30
2018-09-25T09:04:31.394Z,1.63
2018-09-25T09:07:04.269Z,2.07
2018-09-25T09:09:37.128Z,2.10
2018-09-25T09:12:10.113Z,1.67
2018-09-25T09:14:42.941Z,2.37
2018-09-25T09:17:15.722Z,2.00
2018-09-25T09:19:48.608Z,2.20
2018-09-25T09:22:21.380Z,2.40
2018-09-25T09:24:54.170Z,2.13
2018-09-25T09:27:26.995Z,1.97
2018-09-25T09:30:00.183Z,1.77
2018-09-25T09:32:32.997Z,2.70
2018-09-25T09:35:05.768Z,2.07
2018-09-25T09:37:38.485Z,2.07
2018-09-25T09:40:11.225Z,2.00
2018-09-25T09:42:44.080Z,1.87
2018-09-25T09:45:16.936Z,1.70
2018-09-25T09:47:49.661Z,1.93
2018-09-25T09:50:22.691Z,1.50
2018-09-25T09:52:55.407Z,1.87
2018-09-25T09:55:28.302Z,2.00
2018-09-25T09:58:01.367Z,1.70
2018-09-25T10:00:34.334Z,2.13
2018-09-25T10:03:07.303Z,2.00
2018-09-25T10:05:40.339Z,1.80
2018-09-25T10:08:13.085Z,1.93
2018-09-25T10:10:45.862Z,1.47
2018-09-25T10:13:18.749Z,2.07
2018-09-25T10:15:51.589Z,2.00
2018-09-25T10:18:24.351Z,2.03
2018-09-25T10:20:57.401Z,2.20
2018-09-25T10:23:30.205Z,1.80
2018-09-25T10:26:02.996Z,2.17
2018-09-25T10:28:35.771Z,1.70
2018-09-25T10:31:08.601Z,2.50
2018-09-25T10:33:41.399Z,2.03
2018-09-25T10:36:14.192Z,2.47
2018-09-25T10:38:46.981Z,2.20
2018-09-25T10:41:20.044Z,1.90
2018-09-25T10:43:53.065Z,1.87
2018-09-25T10:46:25.889Z,2.07
2018-09-25T10:48:58.649Z,1.70
2018-09-25T10:51:31.686Z,2.40
2018-09-25T10:54:04.601Z,2.17
2018-09-25T10:56:37.309Z,1.77
2018-09-25T10:59:10.176Z,1.60
2018-09-25T11:01:43.014Z,1.83
2018-09-25T11:04:16.078Z,1.97
2018-09-25T11:06:48.870Z,2.00
2018-09-25T11:09:21.771Z,2.00
2018-09-25T11:11:54.617Z,2.50
2018-09-25T11:14:27.390Z,2.40
2018-09-25T11:17:00.290Z,2.17
2018-09-25T11:19:33.128Z,2.13
2018-09-25T11:22:05.847Z,1.97
2018-09-25T11:24:38.641Z,2.00
2018-09-25T11:27:11.760Z,1.73
2018-09-25T11:29:44.566Z,2.40
2018-09-25T11:32:17.364Z,1.80
2018-09-25T11:34:50.368Z,1.93
2018-09-25T11:37:23.113Z,2.90
2018-09-25T11:39:55.889Z,1.80
2018-09-25T11:42:28.805Z,1.50
2018-09-25T11:45:01.585Z,1.57
2018-09-25T11:47:34.698Z,1.50
2018-09-25T11:50:07.401Z,1.40
2018-09-25T11:52:40.524Z,2.23
2018-09-25T11:55:13.411Z,2.00
2018-09-25T11:57:46.310Z,1.40
2018-09-25T12:00:18.989Z,1.67
2018-09-25T12:02:51.887Z,2.00
2018-09-25T12:05:24.880Z,1.60
2018-09-25T12:07:57.644Z,1.57
2018-09-25T12:10:30.339Z,1.37
2018-09-25T12:13:03.176Z,1.40
2018-09-25T12:15:35.964Z,1.70
2018-09-25T12:18:08.990Z,1.20
2018-09-25T12:20:42.107Z,1.50
2018-09-25T12:23:14.996Z,1.27
2018-09-25T12:25:47.849Z,1.20
2018-09-25T12:28:20.732Z,0.80
2018-09-25T12:30:53.577Z,1.20
2018-09-25T12:33:26.509Z,1.00
2018-09-25T12:35:59.209Z,1.37
2018-09-25T12:38:32.264Z,1.20
2018-09-25T12:41:05.297Z,1.20
2018-09-25T12:43:38.140Z,1.13
2018-09-25T12:46:10.777Z,1.60
2018-09-25T12:48:43.442Z,1.27
2018-09-25T12:51:16.129Z,1.20
2018-09-25T12:53:48.815Z,1.50
2018-09-25T12:56:21.488Z,1.10
2018-09-25T12:58:54.339Z,0.97
2018-09-25T13:01:26.998Z,1.10
2018-09-25T13:03:59.851Z,1.23
2018-09-25T13:06:32.532Z,1.00
2018-09-25T13:09:05.265Z,1.20
2018-09-25T13:11:37.898Z,1.00
2018-09-25T13:14:10.685Z,1.17
2018-09-25T13:16:43.374Z,1.07
2018-09-25T13:19:16.421Z,1.10
2018-09-25T13:21:49.090Z,1.10
2018-09-25T13:24:21.705Z,1.27
2018-09-25T13:26:54.476Z,1.00
2018-09-25T13:29:27.213Z,1.43
2018-09-25T13:32:00.293Z,1.10
2018-09-25T13:34:33.106Z,0.80
2018-09-25T13:37:05.861Z,1.00
2018-09-25T13:39:38.948Z,1.30
2018-09-25T13:42:12.024Z,0.80
2018-09-25T13:44:44.893Z,1.10
2018-09-25T13:47:17.683Z,0.63
2018-09-25T13:49:50.565Z,0.90
2018-09-25T13:52:23.364Z,1.10
2018-09-25T13:54:57.260Z,1.17
2018-09-25T13:57:30.240Z,0.80
2018-09-25T14:00:03.133Z,0.80
2018-09-25T14:02:36.221Z,1.30
2018-09-25T14:05:09.142Z,1.30
2018-09-25T14:07:42.033Z,1.47
2018-09-25T14:10:14.914Z,0.97
2018-09-25T14:12:47.717Z,1.10
2018-09-25T14:15:20.540Z,1.00
2018-09-25T14:17:53.374Z,1.20
2018-09-25T14:20:26.148Z,1.50
2018-09-25T14:22:58.885Z,1.00
2018-09-25T14:25:31.657Z,1.00
2018-09-25T14:28:04.245Z,1.40
2018-09-25T14:30:36.890Z,1.47
2018-09-25T14:33:09.633Z,1.13
2018-09-25T14:35:42.393Z,1.23
2018-09-25T14:38:15.441Z,1.10
2018-09-25T14:40:48.348Z,1.50
2018-09-25T14:43:21.227Z,1.10
2018-09-25T14:45:54.215Z,1.20
2018-09-25T14:48:27.114Z,1.53
2018-09-25T14:51:00.149Z,1.30
2018-09-25T14:53:32.943Z,1.30
2018-09-25T14:56:05.747Z,1.40
2018-09-25T14:58:38.503Z,1.30
2018-09-25T15:01:11.693Z,1.50
2018-09-25T15:03:44.464Z,1.10
2018-09-25T15:06:17.646Z,1.10
2018-09-25T15:08:50.368Z,1.23
2018-09-25T15:11:23.164Z,1.20
2018-09-25T15:13:55.864Z,1.70
2018-09-25T15:16:28.748Z,1.30
2018-09-25T15:19:01.608Z,1.10
2018-09-25T15:21:34.585Z,1.00
2018-09-25T15:24:07.475Z,1.00
2018-09-25T15:26:40.534Z,1.00
2018-09-25T15:29:13.229Z,1.20
2018-09-25T15:31:46.101Z,1.10
2018-09-25T15:34:29.489Z,1.10
2018-09-25T15:37:02.334Z,1.30
2018-09-25T15:39:35.329Z,1.20
2018-09-25T15:42:08.345Z,1.50
2018-09-25T15:44:41.073Z,1.50
2018-09-25T15:47:13.997Z,1.03
2018-09-25T15:49:46.780Z,1.10
2018-09-25T15:52:19.668Z,1.17
2018-09-25T15:54:52.728Z,1.30
2018-09-25T15:57:25.563Z,1.13
2018-09-25T15:59:58.377Z,1.20
2018-09-25T16:02:31.194Z,1.60
2018-09-25T16:05:03.945Z,1.30
2018-09-25T16:07:37.029Z,1.40
2018-09-25T16:10:09.793Z,1.80
2018-09-25T16:12:42.616Z,1.40
2018-09-25T16:15:15.529Z,1.70
2018-09-25T16:17:48.620Z,1.60
2018-09-25T16:20:21.432Z,1.53
2018-09-25T16:22:54.259Z,1.73
2018-09-25T16:25:27.285Z,1.97
2018-09-25T16:28:00.137Z,2.00
2018-09-25T16:30:33.093Z,1.80
2018-09-25T16:33:05.794Z,1.87
2018-09-25T16:35:38.858Z,1.90
2018-09-25T16:38:11.871Z,2.23
2018-09-25T16:40:44.770Z,2.20
2018-09-25T16:43:17.645Z,3.03
2018-09-25T16:45:50.729Z,3.00
2018-09-25T16:48:23.727Z,3.30
2018-09-25T16:50:56.553Z,4.03
2018-09-25T16:53:29.539Z,4.77
2018-09-25T16:56:02.331Z,6.93
2018-09-25T16:58:35.149Z,4.87
2018-09-25T17:01:08.225Z,5.53
2018-09-25T17:03:41.121Z,5.40
2018-09-25T17:06:14.113Z,5.80
2018-09-25T17:08:46.945Z,4.57
2018-09-25T17:11:19.975Z,3.67
2018-09-25T17:13:53.240Z,3.53
2018-09-25T17:16:25.850Z,2.77
2018-09-25T17:18:58.601Z,2.23
2018-09-25T17:21:31.176Z,2.77
2018-09-25T17:24:03.915Z,2.23
2018-09-25T17:26:36.732Z,2.07
2018-09-25T17:29:09.726Z,2.30
2018-09-25T17:31:42.516Z,2.17
2018-09-25T17:34:15.250Z,1.90
2018-09-25T17:36:47.979Z,2.50
2018-09-25T17:39:20.863Z,2.80
2018-09-25T17:41:53.517Z,2.53
2018-09-25T17:44:26.266Z,2.33
